Spring Lake Heights, New Jersey
Current Conditions -  °F | °C
As of 2:15 AM on Friday 19 Dec 2014 (Local Time) from KBLM Reporting Station
Clear Clear  
Wind Chill: -2°   Ceiling: Unl
Heat Index:   Visibility: 10mi
Dew Point: -6°   Wind: 8mph
Humidity: 56%   Direction: 280°W
Pressure: 29.98"   Gusts: NA
Location:  40.1528°N, 74.0364°W
Report Text: KBLM 190715Z AUTO 28007KT 10SM CLR 02/M06 A2998 RMK AO1
Loading
Personal Weather Stations






























Interactive Weather Map New forecast layout! Learn more

10-Day Weather Forecast

Advertisements
Track Severe Weather on mobile